sensor_id;sensor_type;location;lat;lon;timestamp;pressure;altitude;pressure_sealevel;temperature
8227;BMP180;4154;48.810;9.012;2023-11-18T00:00:27;97856.00;;;5.80
8227;BMP180;4154;48.810;9.012;2023-11-18T00:02:53;97849.00;;;5.80
8227;BMP180;4154;48.810;9.012;2023-11-18T00:05:19;97855.00;;;5.80
8227;BMP180;4154;48.810;9.012;2023-11-18T00:07:45;97856.00;;;5.90
8227;BMP180;4154;48.810;9.012;2023-11-18T00:10:11;97850.00;;;5.90
8227;BMP180;4154;48.810;9.012;2023-11-18T00:12:37;97854.00;;;5.90
8227;BMP180;4154;48.810;9.012;2023-11-18T00:15:07;97846.00;;;5.90
8227;BMP180;4154;48.810;9.012;2023-11-18T00:17:34;97850.00;;;5.90
8227;BMP180;4154;48.810;9.012;2023-11-18T00:20:00;97847.00;;;5.90
8227;BMP180;4154;48.810;9.012;2023-11-18T00:22:28;97849.00;;;5.90
8227;BMP180;4154;48.810;9.012;2023-11-18T00:24:54;97842.00;;;5.80
8227;BMP180;4154;48.810;9.012;2023-11-18T00:27:20;97840.00;;;5.80
8227;BMP180;4154;48.810;9.012;2023-11-18T00:29:48;97843.00;;;5.80
8227;BMP180;4154;48.810;9.012;2023-11-18T00:32:14;97843.00;;;5.80
8227;BMP180;4154;48.810;9.012;2023-11-18T00:34:39;97850.00;;;5.80
8227;BMP180;4154;48.810;9.012;2023-11-18T00:37:05;97847.00;;;5.80
8227;BMP180;4154;48.810;9.012;2023-11-18T00:39:31;97848.00;;;5.80
8227;BMP180;4154;48.810;9.012;2023-11-18T00:41:56;97846.00;;;5.80
8227;BMP180;4154;48.810;9.012;2023-11-18T00:44:22;97850.00;;;5.80
8227;BMP180;4154;48.810;9.012;2023-11-18T00:46:49;97848.00;;;5.80
8227;BMP180;4154;48.810;9.012;2023-11-18T00:49:15;97849.00;;;5.80
8227;BMP180;4154;48.810;9.012;2023-11-18T00:51:41;97852.00;;;5.70
8227;BMP180;4154;48.810;9.012;2023-11-18T00:54:07;97851.00;;;5.70
8227;BMP180;4154;48.810;9.012;2023-11-18T00:56:33;97846.00;;;5.70
8227;BMP180;4154;48.810;9.012;2023-11-18T00:58:59;97850.00;;;5.80
8227;BMP180;4154;48.810;9.012;2023-11-18T01:01:27;97842.00;;;5.70
8227;BMP180;4154;48.810;9.012;2023-11-18T01:03:53;97847.00;;;5.80
8227;BMP180;4154;48.810;9.012;2023-11-18T01:06:19;97841.00;;;5.80
8227;BMP180;4154;48.810;9.012;2023-11-18T01:08:46;97842.00;;;5.80
8227;BMP180;4154;48.810;9.012;2023-11-18T01:11:19;97841.00;;;5.80
8227;BMP180;4154;48.810;9.012;2023-11-18T01:13:49;97844.00;;;5.80
8227;BMP180;4154;48.810;9.012;2023-11-18T01:16:15;97854.00;;;5.80
8227;BMP180;4154;48.810;9.012;2023-11-18T01:18:42;97855.00;;;5.80
8227;BMP180;4154;48.810;9.012;2023-11-18T01:21:09;97862.00;;;5.80
8227;BMP180;4154;48.810;9.012;2023-11-18T01:23:38;97859.00;;;5.80
8227;BMP180;4154;48.810;9.012;2023-11-18T01:26:07;97863.00;;;5.80
8227;BMP180;4154;48.810;9.012;2023-11-18T01:28:36;97869.00;;;5.80
8227;BMP180;4154;48.810;9.012;2023-11-18T01:31:05;97874.00;;;5.80
8227;BMP180;4154;48.810;9.012;2023-11-18T01:33:31;97866.00;;;5.80
8227;BMP180;4154;48.810;9.012;2023-11-18T01:36:04;97878.00;;;5.80
8227;BMP180;4154;48.810;9.012;2023-11-18T01:38:30;97877.00;;;5.80
8227;BMP180;4154;48.810;9.012;2023-11-18T01:40:56;97880.00;;;5.70
8227;BMP180;4154;48.810;9.012;2023-11-18T01:43:22;97874.00;;;5.70
8227;BMP180;4154;48.810;9.012;2023-11-18T01:45:48;97865.00;;;5.70
8227;BMP180;4154;48.810;9.012;2023-11-18T01:48:15;97873.00;;;5.70
8227;BMP180;4154;48.810;9.012;2023-11-18T01:50:45;97872.00;;;5.70
8227;BMP180;4154;48.810;9.012;2023-11-18T01:53:13;97867.00;;;5.70
8227;BMP180;4154;48.810;9.012;2023-11-18T01:55:40;97863.00;;;5.70
8227;BMP180;4154;48.810;9.012;2023-11-18T01:58:06;97873.00;;;5.80
8227;BMP180;4154;48.810;9.012;2023-11-18T02:00:41;97871.00;;;5.70
8227;BMP180;4154;48.810;9.012;2023-11-18T02:03:07;97861.00;;;5.70
8227;BMP180;4154;48.810;9.012;2023-11-18T02:05:34;97865.00;;;5.70
8227;BMP180;4154;48.810;9.012;2023-11-18T02:08:03;97880.00;;;5.70
8227;BMP180;4154;48.810;9.012;2023-11-18T02:10:34;97867.00;;;5.70
8227;BMP180;4154;48.810;9.012;2023-11-18T02:13:22;97884.00;;;5.70
8227;BMP180;4154;48.810;9.012;2023-11-18T02:15:54;97875.00;;;5.70
8227;BMP180;4154;48.810;9.012;2023-11-18T02:18:25;97871.00;;;5.70
8227;BMP180;4154;48.810;9.012;2023-11-18T02:20:54;97871.00;;;5.70
8227;BMP180;4154;48.810;9.012;2023-11-18T02:23:20;97872.00;;;5.70
8227;BMP180;4154;48.810;9.012;2023-11-18T02:25:48;97864.00;;;5.70
8227;BMP180;4154;48.810;9.012;2023-11-18T02:28:15;97853.00;;;5.70
8227;BMP180;4154;48.810;9.012;2023-11-18T02:30:42;97851.00;;;5.70
8227;BMP180;4154;48.810;9.012;2023-11-18T02:33:36;97866.00;;;5.60
8227;BMP180;4154;48.810;9.012;2023-11-18T02:36:35;97856.00;;;5.60
8227;BMP180;4154;48.810;9.012;2023-11-18T02:39:16;97871.00;;;5.60
8227;BMP180;4154;48.810;9.012;2023-11-18T02:41:51;97870.00;;;5.50
8227;BMP180;4154;48.810;9.012;2023-11-18T02:44:19;97870.00;;;5.40
8227;BMP180;4154;48.810;9.012;2023-11-18T02:46:49;97868.00;;;5.40
8227;BMP180;4154;48.810;9.012;2023-11-18T02:49:15;97873.00;;;5.30
8227;BMP180;4154;48.810;9.012;2023-11-18T02:51:43;97871.00;;;5.30
8227;BMP180;4154;48.810;9.012;2023-11-18T02:54:13;97861.00;;;5.20
8227;BMP180;4154;48.810;9.012;2023-11-18T02:56:39;97855.00;;;5.20
8227;BMP180;4154;48.810;9.012;2023-11-18T02:59:05;97855.00;;;5.20
8227;BMP180;4154;48.810;9.012;2023-11-18T03:01:34;97861.00;;;5.30
8227;BMP180;4154;48.810;9.012;2023-11-18T03:04:02;97858.00;;;5.20
8227;BMP180;4154;48.810;9.012;2023-11-18T03:06:28;97857.00;;;5.20
8227;BMP180;4154;48.810;9.012;2023-11-18T03:08:53;97856.00;;;5.30
8227;BMP180;4154;48.810;9.012;2023-11-18T03:11:20;97855.00;;;5.20
8227;BMP180;4154;48.810;9.012;2023-11-18T03:13:45;97851.00;;;5.20
8227;BMP180;4154;48.810;9.012;2023-11-18T03:16:11;97860.00;;;5.20
8227;BMP180;4154;48.810;9.012;2023-11-18T03:18:42;97866.00;;;5.30
8227;BMP180;4154;48.810;9.012;2023-11-18T03:21:12;97859.00;;;5.30
8227;BMP180;4154;48.810;9.012;2023-11-18T03:23:39;97850.00;;;5.30
8227;BMP180;4154;48.810;9.012;2023-11-18T03:26:07;97862.00;;;5.30
8227;BMP180;4154;48.810;9.012;2023-11-18T03:28:33;97857.00;;;5.30
8227;BMP180;4154;48.810;9.012;2023-11-18T03:30:59;97851.00;;;5.30
8227;BMP180;4154;48.810;9.012;2023-11-18T03:33:25;97860.00;;;5.30
8227;BMP180;4154;48.810;9.012;2023-11-18T03:35:51;97854.00;;;5.30
8227;BMP180;4154;48.810;9.012;2023-11-18T03:38:17;97854.00;;;5.20
8227;BMP180;4154;48.810;9.012;2023-11-18T03:40:43;97850.00;;;5.20
8227;BMP180;4154;48.810;9.012;2023-11-18T03:43:11;97857.00;;;5.20
8227;BMP180;4154;48.810;9.012;2023-11-18T03:45:39;97859.00;;;5.20
8227;BMP180;4154;48.810;9.012;2023-11-18T03:48:06;97855.00;;;5.10
8227;BMP180;4154;48.810;9.012;2023-11-18T03:50:33;97869.00;;;5.10
8227;BMP180;4154;48.810;9.012;2023-11-18T03:52:59;97870.00;;;5.00
8227;BMP180;4154;48.810;9.012;2023-11-18T03:55:25;97859.00;;;5.00
8227;BMP180;4154;48.810;9.012;2023-11-18T03:57:52;97852.00;;;4.90
8227;BMP180;4154;48.810;9.012;2023-11-18T04:00:18;97863.00;;;4.90
8227;BMP180;4154;48.810;9.012;2023-11-18T04:02:45;97869.00;;;4.90
8227;BMP180;4154;48.810;9.012;2023-11-18T04:05:12;97862.00;;;4.90
8227;BMP180;4154;48.810;9.012;2023-11-18T04:07:38;97844.00;;;4.90
8227;BMP180;4154;48.810;9.012;2023-11-18T04:10:08;97856.00;;;4.80
8227;BMP180;4154;48.810;9.012;2023-11-18T04:12:36;97855.00;;;4.80
8227;BMP180;4154;48.810;9.012;2023-11-18T04:15:04;97872.00;;;4.80
8227;BMP180;4154;48.810;9.012;2023-11-18T04:17:31;97863.00;;;4.80
8227;BMP180;4154;48.810;9.012;2023-11-18T04:19:57;97866.00;;;4.80
8227;BMP180;4154;48.810;9.012;2023-11-18T04:22:23;97867.00;;;4.80
8227;BMP180;4154;48.810;9.012;2023-11-18T04:24:49;97864.00;;;4.70
8227;BMP180;4154;48.810;9.012;2023-11-18T04:27:15;97858.00;;;4.70
8227;BMP180;4154;48.810;9.012;2023-11-18T04:29:41;97864.00;;;4.70
8227;BMP180;4154;48.810;9.012;2023-11-18T04:32:08;97864.00;;;4.70
8227;BMP180;4154;48.810;9.012;2023-11-18T04:34:37;97857.00;;;4.70
8227;BMP180;4154;48.810;9.012;2023-11-18T04:37:04;97853.00;;;4.60
8227;BMP180;4154;48.810;9.012;2023-11-18T04:39:32;97861.00;;;4.60
8227;BMP180;4154;48.810;9.012;2023-11-18T04:41:58;97864.00;;;4.60
8227;BMP180;4154;48.810;9.012;2023-11-18T04:44:24;97855.00;;;4.60
8227;BMP180;4154;48.810;9.012;2023-11-18T04:46:50;97852.00;;;4.50
8227;BMP180;4154;48.810;9.012;2023-11-18T04:49:16;97855.00;;;4.50
8227;BMP180;4154;48.810;9.012;2023-11-18T04:51:41;97851.00;;;4.50
8227;BMP180;4154;48.810;9.012;2023-11-18T04:54:07;97855.00;;;4.50
8227;BMP180;4154;48.810;9.012;2023-11-18T04:56:34;97851.00;;;4.40
8227;BMP180;4154;48.810;9.012;2023-11-18T04:59:03;97852.00;;;4.40
8227;BMP180;4154;48.810;9.012;2023-11-18T05:01:31;97857.00;;;4.30
8227;BMP180;4154;48.810;9.012;2023-11-18T05:03:57;97851.00;;;4.30
8227;BMP180;4154;48.810;9.012;2023-11-18T05:06:23;97842.00;;;4.30
8227;BMP180;4154;48.810;9.012;2023-11-18T05:08:49;97844.00;;;4.20
8227;BMP180;4154;48.810;9.012;2023-11-18T05:11:15;97844.00;;;4.20
8227;BMP180;4154;48.810;9.012;2023-11-18T05:13:41;97843.00;;;4.20
8227;BMP180;4154;48.810;9.012;2023-11-18T05:16:07;97843.00;;;4.10
8227;BMP180;4154;48.810;9.012;2023-11-18T05:18:34;97840.00;;;4.10
8227;BMP180;4154;48.810;9.012;2023-11-18T05:21:03;97836.00;;;4.10
8227;BMP180;4154;48.810;9.012;2023-11-18T05:23:31;97840.00;;;4.00
8227;BMP180;4154;48.810;9.012;2023-11-18T05:25:57;97838.00;;;4.00
8227;BMP180;4154;48.810;9.012;2023-11-18T05:28:26;97842.00;;;4.00
8227;BMP180;4154;48.810;9.012;2023-11-18T05:30:52;97842.00;;;4.00
8227;BMP180;4154;48.810;9.012;2023-11-18T05:33:18;97851.00;;;4.00
8227;BMP180;4154;48.810;9.012;2023-11-18T05:35:45;97834.00;;;4.00
8227;BMP180;4154;48.810;9.012;2023-11-18T05:38:18;97832.00;;;4.10
8227;BMP180;4154;48.810;9.012;2023-11-18T05:40:47;97841.00;;;4.00
8227;BMP180;4154;48.810;9.012;2023-11-18T05:43:32;97841.00;;;4.10
8227;BMP180;4154;48.810;9.012;2023-11-18T05:46:06;97846.00;;;4.10
8227;BMP180;4154;48.810;9.012;2023-11-18T05:48:49;97842.00;;;4.10
8227;BMP180;4154;48.810;9.012;2023-11-18T05:51:23;97843.00;;;4.10
8227;BMP180;4154;48.810;9.012;2023-11-18T05:53:50;97845.00;;;4.10
8227;BMP180;4154;48.810;9.012;2023-11-18T05:56:17;97834.00;;;4.00
8227;BMP180;4154;48.810;9.012;2023-11-18T05:58:44;97832.00;;;4.00
8227;BMP180;4154;48.810;9.012;2023-11-18T06:01:10;97830.00;;;4.00
8227;BMP180;4154;48.810;9.012;2023-11-18T06:03:38;97822.00;;;4.00
8227;BMP180;4154;48.810;9.012;2023-11-18T06:06:15;97822.00;;;4.00
8227;BMP180;4154;48.810;9.012;2023-11-18T06:08:42;97836.00;;;4.00
8227;BMP180;4154;48.810;9.012;2023-11-18T06:11:12;97835.00;;;4.00
8227;BMP180;4154;48.810;9.012;2023-11-18T06:13:47;97832.00;;;4.00
8227;BMP180;4154;48.810;9.012;2023-11-18T06:16:21;97821.00;;;4.00
8227;BMP180;4154;48.810;9.012;2023-11-18T06:18:51;97820.00;;;4.00
8227;BMP180;4154;48.810;9.012;2023-11-18T06:21:19;97814.00;;;3.90
8227;BMP180;4154;48.810;9.012;2023-11-18T06:23:47;97822.00;;;3.80
8227;BMP180;4154;48.810;9.012;2023-11-18T06:26:14;97825.00;;;3.90
8227;BMP180;4154;48.810;9.012;2023-11-18T06:28:42;97828.00;;;3.90
8227;BMP180;4154;48.810;9.012;2023-11-18T06:31:09;97847.00;;;3.90
8227;BMP180;4154;48.810;9.012;2023-11-18T06:33:52;97848.00;;;3.90
8227;BMP180;4154;48.810;9.012;2023-11-18T06:36:19;97850.00;;;3.80
8227;BMP180;4154;48.810;9.012;2023-11-18T06:38:52;97848.00;;;3.80
8227;BMP180;4154;48.810;9.012;2023-11-18T06:41:20;97853.00;;;3.80
8227;BMP180;4154;48.810;9.012;2023-11-18T06:43:49;97865.00;;;3.80
8227;BMP180;4154;48.810;9.012;2023-11-18T06:46:32;97859.00;;;3.80
8227;BMP180;4154;48.810;9.012;2023-11-18T06:49:00;97852.00;;;3.80
8227;BMP180;4154;48.810;9.012;2023-11-18T06:51:33;97844.00;;;3.80
8227;BMP180;4154;48.810;9.012;2023-11-18T06:54:01;97843.00;;;3.80
8227;BMP180;4154;48.810;9.012;2023-11-18T06:56:34;97845.00;;;3.80
8227;BMP180;4154;48.810;9.012;2023-11-18T06:59:02;97833.00;;;3.80
8227;BMP180;4154;48.810;9.012;2023-11-18T07:01:29;97844.00;;;3.80
8227;BMP180;4154;48.810;9.012;2023-11-18T07:03:56;97832.00;;;3.80
8227;BMP180;4154;48.810;9.012;2023-11-18T07:06:22;97842.00;;;3.80
8227;BMP180;4154;48.810;9.012;2023-11-18T07:08:49;97837.00;;;3.90
8227;BMP180;4154;48.810;9.012;2023-11-18T07:11:19;97846.00;;;3.80
8227;BMP180;4154;48.810;9.012;2023-11-18T07:13:48;97844.00;;;3.90
8227;BMP180;4154;48.810;9.012;2023-11-18T07:16:15;97837.00;;;3.90
8227;BMP180;4154;48.810;9.012;2023-11-18T07:18:41;97857.00;;;3.90
8227;BMP180;4154;48.810;9.012;2023-11-18T07:21:09;97861.00;;;4.00
8227;BMP180;4154;48.810;9.012;2023-11-18T07:23:36;97873.00;;;4.00
8227;BMP180;4154;48.810;9.012;2023-11-18T07:26:02;97872.00;;;4.10
8227;BMP180;4154;48.810;9.012;2023-11-18T07:28:29;97872.00;;;4.10
8227;BMP180;4154;48.810;9.012;2023-11-18T07:30:57;97871.00;;;4.20
8227;BMP180;4154;48.810;9.012;2023-11-18T07:33:24;97868.00;;;4.20
8227;BMP180;4154;48.810;9.012;2023-11-18T07:35:50;97869.00;;;4.30
8227;BMP180;4154;48.810;9.012;2023-11-18T07:38:16;97855.00;;;4.40
8227;BMP180;4154;48.810;9.012;2023-11-18T07:40:45;97860.00;;;4.40
8227;BMP180;4154;48.810;9.012;2023-11-18T07:43:15;97863.00;;;4.50
8227;BMP180;4154;48.810;9.012;2023-11-18T07:45:41;97862.00;;;4.50
8227;BMP180;4154;48.810;9.012;2023-11-18T07:48:11;97861.00;;;4.60
8227;BMP180;4154;48.810;9.012;2023-11-18T07:50:40;97853.00;;;4.60
8227;BMP180;4154;48.810;9.012;2023-11-18T07:53:07;97841.00;;;4.70
8227;BMP180;4154;48.810;9.012;2023-11-18T07:55:33;97845.00;;;4.70
8227;BMP180;4154;48.810;9.012;2023-11-18T07:58:09;97844.00;;;4.70
8227;BMP180;4154;48.810;9.012;2023-11-18T08:00:42;97848.00;;;4.80
8227;BMP180;4154;48.810;9.012;2023-11-18T08:03:11;97854.00;;;4.80
8227;BMP180;4154;48.810;9.012;2023-11-18T08:05:42;97849.00;;;4.80
8227;BMP180;4154;48.810;9.012;2023-11-18T08:08:10;97859.00;;;4.90
8227;BMP180;4154;48.810;9.012;2023-11-18T08:10:37;97858.00;;;4.90
8227;BMP180;4154;48.810;9.012;2023-11-18T08:13:10;97858.00;;;5.00
8227;BMP180;4154;48.810;9.012;2023-11-18T08:15:41;97864.00;;;5.00
8227;BMP180;4154;48.810;9.012;2023-11-18T08:18:08;97871.00;;;5.10
8227;BMP180;4154;48.810;9.012;2023-11-18T08:20:38;97874.00;;;5.10
8227;BMP180;4154;48.810;9.012;2023-11-18T08:23:04;97871.00;;;5.20
8227;BMP180;4154;48.810;9.012;2023-11-18T08:25:31;97874.00;;;5.20
8227;BMP180;4154;48.810;9.012;2023-11-18T08:28:00;97859.00;;;5.30
8227;BMP180;4154;48.810;9.012;2023-11-18T08:30:38;97864.00;;;5.30
8227;BMP180;4154;48.810;9.012;2023-11-18T08:33:05;97873.00;;;5.30
8227;BMP180;4154;48.810;9.012;2023-11-18T08:35:35;97879.00;;;5.30
8227;BMP180;4154;48.810;9.012;2023-11-18T08:38:04;97871.00;;;5.30
8227;BMP180;4154;48.810;9.012;2023-11-18T08:40:33;97868.00;;;5.40
8227;BMP180;4154;48.810;9.012;2023-11-18T08:43:00;97862.00;;;5.50
8227;BMP180;4154;48.810;9.012;2023-11-18T08:45:28;97854.00;;;5.50
8227;BMP180;4154;48.810;9.012;2023-11-18T08:48:03;97863.00;;;5.50
8227;BMP180;4154;48.810;9.012;2023-11-18T08:50:37;97869.00;;;5.50
8227;BMP180;4154;48.810;9.012;2023-11-18T08:53:05;97874.00;;;5.50
8227;BMP180;4154;48.810;9.012;2023-11-18T08:55:35;97862.00;;;5.60
8227;BMP180;4154;48.810;9.012;2023-11-18T08:58:08;97862.00;;;5.60
8227;BMP180;4154;48.810;9.012;2023-11-18T09:00:42;97842.00;;;5.60
8227;BMP180;4154;48.810;9.012;2023-11-18T09:03:16;97840.00;;;5.70
8227;BMP180;4154;48.810;9.012;2023-11-18T09:05:57;97847.00;;;5.80
8227;BMP180;4154;48.810;9.012;2023-11-18T09:10:53;97855.00;;;5.80
8227;BMP180;4154;48.810;9.012;2023-11-18T09:13:27;97849.00;;;5.80
8227;BMP180;4154;48.810;9.012;2023-11-18T09:15:58;97849.00;;;5.80
8227;BMP180;4154;48.810;9.012;2023-11-18T09:18:26;97845.00;;;5.90
8227;BMP180;4154;48.810;9.012;2023-11-18T09:20:53;97856.00;;;5.90
8227;BMP180;4154;48.810;9.012;2023-11-18T09:23:25;97844.00;;;5.90
8227;BMP180;4154;48.810;9.012;2023-11-18T09:25:53;97854.00;;;5.90
8227;BMP180;4154;48.810;9.012;2023-11-18T09:28:20;97844.00;;;6.00
8227;BMP180;4154;48.810;9.012;2023-11-18T09:30:47;97853.00;;;6.10
8227;BMP180;4154;48.810;9.012;2023-11-18T09:33:20;97846.00;;;6.10
8227;BMP180;4154;48.810;9.012;2023-11-18T09:36:00;97851.00;;;6.20
8227;BMP180;4154;48.810;9.012;2023-11-18T09:38:30;97858.00;;;6.20
8227;BMP180;4154;48.810;9.012;2023-11-18T09:41:00;97844.00;;;6.20
8227;BMP180;4154;48.810;9.012;2023-11-18T09:43:30;97852.00;;;6.30
8227;BMP180;4154;48.810;9.012;2023-11-18T09:46:04;97865.00;;;6.30
8227;BMP180;4154;48.810;9.012;2023-11-18T09:48:52;97855.00;;;6.40
8227;BMP180;4154;48.810;9.012;2023-11-18T09:51:24;97847.00;;;6.40
8227;BMP180;4154;48.810;9.012;2023-11-18T09:53:54;97843.00;;;6.60
8227;BMP180;4154;48.810;9.012;2023-11-18T09:56:51;97843.00;;;6.60
8227;BMP180;4154;48.810;9.012;2023-11-18T09:59:32;97835.00;;;6.70
8227;BMP180;4154;48.810;9.012;2023-11-18T10:02:03;97844.00;;;6.60
8227;BMP180;4154;48.810;9.012;2023-11-18T10:04:37;97845.00;;;6.70
8227;BMP180;4154;48.810;9.012;2023-11-18T10:07:05;97844.00;;;6.70
8227;BMP180;4154;48.810;9.012;2023-11-18T10:09:33;97839.00;;;6.80
8227;BMP180;4154;48.810;9.012;2023-11-18T10:12:08;97835.00;;;6.90
8227;BMP180;4154;48.810;9.012;2023-11-18T10:14:35;97841.00;;;7.00
8227;BMP180;4154;48.810;9.012;2023-11-18T10:17:07;97842.00;;;7.00
8227;BMP180;4154;48.810;9.012;2023-11-18T10:22:26;97831.00;;;7.10
8227;BMP180;4154;48.810;9.012;2023-11-18T10:24:53;97835.00;;;7.20
8227;BMP180;4154;48.810;9.012;2023-11-18T10:27:24;97834.00;;;7.20
8227;BMP180;4154;48.810;9.012;2023-11-18T10:29:56;97843.00;;;7.20
8227;BMP180;4154;48.810;9.012;2023-11-18T10:32:22;97844.00;;;7.20
8227;BMP180;4154;48.810;9.012;2023-11-18T10:34:51;97836.00;;;7.30
8227;BMP180;4154;48.810;9.012;2023-11-18T10:37:17;97835.00;;;7.20
8227;BMP180;4154;48.810;9.012;2023-11-18T10:39:47;97847.00;;;7.30
8227;BMP180;4154;48.810;9.012;2023-11-18T10:42:17;97853.00;;;7.30
8227;BMP180;4154;48.810;9.012;2023-11-18T10:44:59;97844.00;;;7.40
8227;BMP180;4154;48.810;9.012;2023-11-18T10:47:32;97831.00;;;7.40
8227;BMP180;4154;48.810;9.012;2023-11-18T10:49:59;97839.00;;;7.40
8227;BMP180;4154;48.810;9.012;2023-11-18T10:52:25;97826.00;;;7.40
8227;BMP180;4154;48.810;9.012;2023-11-18T10:54:53;97824.00;;;7.40
8227;BMP180;4154;48.810;9.012;2023-11-18T10:57:22;97834.00;;;7.50
8227;BMP180;4154;48.810;9.012;2023-11-18T11:00:03;97830.00;;;7.50
8227;BMP180;4154;48.810;9.012;2023-11-18T11:02:32;97817.00;;;7.60
8227;BMP180;4154;48.810;9.012;2023-11-18T11:05:03;97808.00;;;7.60
8227;BMP180;4154;48.810;9.012;2023-11-18T11:07:32;97815.00;;;7.60
8227;BMP180;4154;48.810;9.012;2023-11-18T11:10:00;97807.00;;;7.60
8227;BMP180;4154;48.810;9.012;2023-11-18T11:12:33;97815.00;;;7.60
8227;BMP180;4154;48.810;9.012;2023-11-18T11:15:12;97816.00;;;7.60
8227;BMP180;4154;48.810;9.012;2023-11-18T11:17:52;97814.00;;;7.60
8227;BMP180;4154;48.810;9.012;2023-11-18T11:20:22;97823.00;;;7.70
8227;BMP180;4154;48.810;9.012;2023-11-18T11:26:33;97812.00;;;7.70
8227;BMP180;4154;48.810;9.012;2023-11-18T11:29:30;97818.00;;;7.70
8227;BMP180;4154;48.810;9.012;2023-11-18T11:32:18;97810.00;;;7.70
8227;BMP180;4154;48.810;9.012;2023-11-18T11:35:16;97797.00;;;7.70
8227;BMP180;4154;48.810;9.012;2023-11-18T11:37:44;97796.00;;;7.60
8227;BMP180;4154;48.810;9.012;2023-11-18T11:40:13;97790.00;;;7.70
8227;BMP180;4154;48.810;9.012;2023-11-18T11:42:50;97787.00;;;7.70
8227;BMP180;4154;48.810;9.012;2023-11-18T11:45:24;97784.00;;;7.70
8227;BMP180;4154;48.810;9.012;2023-11-18T11:47:56;97786.00;;;7.70
8227;BMP180;4154;48.810;9.012;2023-11-18T11:50:59;97760.00;;;7.70
8227;BMP180;4154;48.810;9.012;2023-11-18T11:53:35;97767.00;;;7.70
8227;BMP180;4154;48.810;9.012;2023-11-18T11:56:05;97757.00;;;7.70
8227;BMP180;4154;48.810;9.012;2023-11-18T11:58:41;97752.00;;;7.70
8227;BMP180;4154;48.810;9.012;2023-11-18T12:01:35;97755.00;;;7.80
8227;BMP180;4154;48.810;9.012;2023-11-18T12:04:09;97738.00;;;7.80
8227;BMP180;4154;48.810;9.012;2023-11-18T12:06:47;97751.00;;;7.80
8227;BMP180;4154;48.810;9.012;2023-11-18T12:09:14;97746.00;;;7.80
8227;BMP180;4154;48.810;9.012;2023-11-18T12:11:49;97752.00;;;7.80
8227;BMP180;4154;48.810;9.012;2023-11-18T12:14:16;97744.00;;;7.80
8227;BMP180;4154;48.810;9.012;2023-11-18T12:17:07;97736.00;;;7.80
8227;BMP180;4154;48.810;9.012;2023-11-18T12:19:39;97724.00;;;7.70
8227;BMP180;4154;48.810;9.012;2023-11-18T12:22:17;97716.00;;;7.80
8227;BMP180;4154;48.810;9.012;2023-11-18T12:27:45;97701.00;;;7.70
8227;BMP180;4154;48.810;9.012;2023-11-18T12:33:02;97712.00;;;7.80
8227;BMP180;4154;48.810;9.012;2023-11-18T12:39:00;97697.00;;;7.80
8227;BMP180;4154;48.810;9.012;2023-11-18T12:41:36;97697.00;;;7.80
8227;BMP180;4154;48.810;9.012;2023-11-18T12:46:54;97686.00;;;7.80
8227;BMP180;4154;48.810;9.012;2023-11-18T12:49:24;97699.00;;;7.80
8227;BMP180;4154;48.810;9.012;2023-11-18T12:51:55;97685.00;;;7.80
8227;BMP180;4154;48.810;9.012;2023-11-18T12:54:23;97690.00;;;7.70
8227;BMP180;4154;48.810;9.012;2023-11-18T12:56:55;97679.00;;;7.70
8227;BMP180;4154;48.810;9.012;2023-11-18T12:59:22;97670.00;;;7.80
8227;BMP180;4154;48.810;9.012;2023-11-18T13:01:52;97682.00;;;7.80
8227;BMP180;4154;48.810;9.012;2023-11-18T13:04:25;97685.00;;;7.70
8227;BMP180;4154;48.810;9.012;2023-11-18T13:06:52;97688.00;;;7.60
8227;BMP180;4154;48.810;9.012;2023-11-18T13:09:19;97684.00;;;7.70
8227;BMP180;4154;48.810;9.012;2023-11-18T13:12:02;97680.00;;;7.70
8227;BMP180;4154;48.810;9.012;2023-11-18T13:14:32;97665.00;;;7.70
8227;BMP180;4154;48.810;9.012;2023-11-18T13:17:12;97653.00;;;7.70
8227;BMP180;4154;48.810;9.012;2023-11-18T13:19:40;97666.00;;;7.70
8227;BMP180;4154;48.810;9.012;2023-11-18T13:22:08;97656.00;;;7.70
8227;BMP180;4154;48.810;9.012;2023-11-18T13:24:39;97648.00;;;7.70
8227;BMP180;4154;48.810;9.012;2023-11-18T13:27:06;97652.00;;;7.70
8227;BMP180;4154;48.810;9.012;2023-11-18T13:29:35;97648.00;;;7.70
8227;BMP180;4154;48.810;9.012;2023-11-18T13:32:01;97646.00;;;7.70
8227;BMP180;4154;48.810;9.012;2023-11-18T13:34:37;97642.00;;;7.70
8227;BMP180;4154;48.810;9.012;2023-11-18T13:37:11;97635.00;;;7.70
8227;BMP180;4154;48.810;9.012;2023-11-18T13:39:45;97640.00;;;7.70
8227;BMP180;4154;48.810;9.012;2023-11-18T13:42:24;97619.00;;;7.70
8227;BMP180;4154;48.810;9.012;2023-11-18T13:44:51;97626.00;;;7.60
8227;BMP180;4154;48.810;9.012;2023-11-18T13:47:19;97633.00;;;7.70
8227;BMP180;4154;48.810;9.012;2023-11-18T13:49:45;97615.00;;;7.70
8227;BMP180;4154;48.810;9.012;2023-11-18T13:52:13;97613.00;;;7.70
8227;BMP180;4154;48.810;9.012;2023-11-18T13:54:42;97624.00;;;7.60
8227;BMP180;4154;48.810;9.012;2023-11-18T13:57:11;97603.00;;;7.60
8227;BMP180;4154;48.810;9.012;2023-11-18T13:59:38;97607.00;;;7.60
8227;BMP180;4154;48.810;9.012;2023-11-18T14:02:04;97592.00;;;7.50
8227;BMP180;4154;48.810;9.012;2023-11-18T14:04:33;97591.00;;;7.60
8227;BMP180;4154;48.810;9.012;2023-11-18T14:07:02;97592.00;;;7.60
8227;BMP180;4154;48.810;9.012;2023-11-18T14:09:29;97585.00;;;7.60
8227;BMP180;4154;48.810;9.012;2023-11-18T14:11:58;97576.00;;;7.60
8227;BMP180;4154;48.810;9.012;2023-11-18T14:14:24;97585.00;;;7.60
8227;BMP180;4154;48.810;9.012;2023-11-18T14:16:51;97575.00;;;7.60
8227;BMP180;4154;48.810;9.012;2023-11-18T14:19:19;97566.00;;;7.60
8227;BMP180;4154;48.810;9.012;2023-11-18T14:21:45;97558.00;;;7.60
8227;BMP180;4154;48.810;9.012;2023-11-18T14:24:11;97547.00;;;7.60
8227;BMP180;4154;48.810;9.012;2023-11-18T14:26:39;97550.00;;;7.60
8227;BMP180;4154;48.810;9.012;2023-11-18T14:29:07;97559.00;;;7.60
8227;BMP180;4154;48.810;9.012;2023-11-18T14:31:34;97558.00;;;7.60
8227;BMP180;4154;48.810;9.012;2023-11-18T14:34:04;97565.00;;;7.70
8227;BMP180;4154;48.810;9.012;2023-11-18T14:36:31;97544.00;;;7.60
8227;BMP180;4154;48.810;9.012;2023-11-18T14:38:56;97562.00;;;7.60
8227;BMP180;4154;48.810;9.012;2023-11-18T14:41:25;97557.00;;;7.60
8227;BMP180;4154;48.810;9.012;2023-11-18T14:43:52;97555.00;;;7.60
8227;BMP180;4154;48.810;9.012;2023-11-18T14:46:18;97553.00;;;7.60
8227;BMP180;4154;48.810;9.012;2023-11-18T14:48:45;97549.00;;;7.60
8227;BMP180;4154;48.810;9.012;2023-11-18T14:51:12;97552.00;;;7.60
8227;BMP180;4154;48.810;9.012;2023-11-18T14:53:38;97547.00;;;7.70
8227;BMP180;4154;48.810;9.012;2023-11-18T14:56:05;97561.00;;;7.70
8227;BMP180;4154;48.810;9.012;2023-11-18T14:58:34;97559.00;;;7.70
8227;BMP180;4154;48.810;9.012;2023-11-18T15:01:04;97571.00;;;7.60
8227;BMP180;4154;48.810;9.012;2023-11-18T15:03:33;97571.00;;;7.60
8227;BMP180;4154;48.810;9.012;2023-11-18T15:05:59;97583.00;;;7.70
8227;BMP180;4154;48.810;9.012;2023-11-18T15:08:24;97575.00;;;7.70
8227;BMP180;4154;48.810;9.012;2023-11-18T15:10:50;97562.00;;;7.60
8227;BMP180;4154;48.810;9.012;2023-11-18T15:13:16;97562.00;;;7.60
8227;BMP180;4154;48.810;9.012;2023-11-18T15:15:44;97566.00;;;7.60
8227;BMP180;4154;48.810;9.012;2023-11-18T15:18:13;97568.00;;;7.70
8227;BMP180;4154;48.810;9.012;2023-11-18T15:20:43;97563.00;;;7.70
8227;BMP180;4154;48.810;9.012;2023-11-18T15:23:10;97562.00;;;7.70